sensor_id;sensor_type;location;lat;lon;timestamp;P1;durP1;ratioP1;P2;durP2;ratioP2
14241;SDS011;7205;50.864;12.766;2022-09-21T00:01:02;3.43;;;3.23;;
14241;SDS011;7205;50.864;12.766;2022-09-21T00:03:32;3.43;;;3.07;;
14241;SDS011;7205;50.864;12.766;2022-09-21T00:06:02;6.30;;;3.80;;
14241;SDS011;7205;50.864;12.766;2022-09-21T00:08:29;3.60;;;3.30;;
14241;SDS011;7205;50.864;12.766;2022-09-21T00:10:56;4.13;;;3.50;;
14241;SDS011;7205;50.864;12.766;2022-09-21T00:13:24;4.20;;;3.80;;
14241;SDS011;7205;50.864;12.766;2022-09-21T00:15:52;3.50;;;3.20;;
14241;SDS011;7205;50.864;12.766;2022-09-21T00:18:21;4.07;;;3.13;;
14241;SDS011;7205;50.864;12.766;2022-09-21T00:20:50;4.83;;;3.50;;
14241;SDS011;7205;50.864;12.766;2022-09-21T00:23:17;3.50;;;3.20;;
14241;SDS011;7205;50.864;12.766;2022-09-21T00:25:44;3.63;;;3.33;;
14241;SDS011;7205;50.864;12.766;2022-09-21T00:28:11;5.07;;;4.00;;
14241;SDS011;7205;50.864;12.766;2022-09-21T00:30:38;3.80;;;3.50;;
14241;SDS011;7205;50.864;12.766;2022-09-21T00:33:05;5.30;;;4.30;;
14241;SDS011;7205;50.864;12.766;2022-09-21T00:35:34;3.90;;;3.60;;
14241;SDS011;7205;50.864;12.766;2022-09-21T00:38:03;3.90;;;3.60;;
14241;SDS011;7205;50.864;12.766;2022-09-21T00:40:30;5.47;;;3.00;;
14241;SDS011;7205;50.864;12.766;2022-09-21T00:43:12;4.03;;;3.63;;
14241;SDS011;7205;50.864;12.766;2022-09-21T00:45:41;4.00;;;2.90;;
14241;SDS011;7205;50.864;12.766;2022-09-21T00:48:09;3.97;;;3.60;;
14241;SDS011;7205;50.864;12.766;2022-09-21T00:50:37;3.67;;;3.03;;
14241;SDS011;7205;50.864;12.766;2022-09-21T00:53:09;4.73;;;3.20;;
14241;SDS011;7205;50.864;12.766;2022-09-21T00:55:36;3.87;;;3.50;;
14241;SDS011;7205;50.864;12.766;2022-09-21T00:58:17;3.67;;;3.20;;
14241;SDS011;7205;50.864;12.766;2022-09-21T01:19:16;5.37;;;3.60;;
14241;SDS011;7205;50.864;12.766;2022-09-21T01:21:59;4.17;;;3.73;;
14241;SDS011;7205;50.864;12.766;2022-09-21T01:24:40;5.07;;;3.73;;
14241;SDS011;7205;50.864;12.766;2022-09-21T01:27:30;5.60;;;3.53;;
14241;SDS011;7205;50.864;12.766;2022-09-21T01:30:07;3.70;;;3.50;;
14241;SDS011;7205;50.864;12.766;2022-09-21T01:32:39;4.33;;;3.83;;
14241;SDS011;7205;50.864;12.766;2022-09-21T01:35:10;4.63;;;4.03;;
14241;SDS011;7205;50.864;12.766;2022-09-21T01:37:42;4.00;;;3.67;;
14241;SDS011;7205;50.864;12.766;2022-09-21T01:40:14;4.40;;;4.00;;
14241;SDS011;7205;50.864;12.766;2022-09-21T01:42:50;6.67;;;4.10;;
14241;SDS011;7205;50.864;12.766;2022-09-21T01:45:22;5.83;;;4.50;;
14241;SDS011;7205;50.864;12.766;2022-09-21T01:47:53;5.13;;;4.57;;
14241;SDS011;7205;50.864;12.766;2022-09-21T01:50:25;5.60;;;4.50;;
14241;SDS011;7205;50.864;12.766;2022-09-21T01:52:57;5.40;;;4.17;;
14241;SDS011;7205;50.864;12.766;2022-09-21T01:55:29;7.23;;;4.50;;
14241;SDS011;7205;50.864;12.766;2022-09-21T01:58:05;4.70;;;4.23;;
14241;SDS011;7205;50.864;12.766;2022-09-21T02:00:38;5.50;;;4.37;;
14241;SDS011;7205;50.864;12.766;2022-09-21T02:03:10;5.47;;;4.47;;
14241;SDS011;7205;50.864;12.766;2022-09-21T02:05:42;4.60;;;4.27;;
14241;SDS011;7205;50.864;12.766;2022-09-21T02:08:09;4.97;;;4.50;;
14241;SDS011;7205;50.864;12.766;2022-09-21T02:10:37;5.20;;;4.70;;
14241;SDS011;7205;50.864;12.766;2022-09-21T02:13:08;5.83;;;4.77;;
14241;SDS011;7205;50.864;12.766;2022-09-21T02:15:38;6.97;;;5.63;;
14241;SDS011;7205;50.864;12.766;2022-09-21T02:18:15;8.43;;;4.97;;
14241;SDS011;7205;50.864;12.766;2022-09-21T02:20:51;5.60;;;5.03;;
14241;SDS011;7205;50.864;12.766;2022-09-21T02:23:23;7.47;;;5.00;;
14241;SDS011;7205;50.864;12.766;2022-09-21T02:25:58;6.80;;;4.97;;
14241;SDS011;7205;50.864;12.766;2022-09-21T02:28:32;8.50;;;4.80;;
14241;SDS011;7205;50.864;12.766;2022-09-21T02:31:10;6.90;;;5.60;;
14241;SDS011;7205;50.864;12.766;2022-09-21T02:33:42;6.60;;;4.93;;
14241;SDS011;7205;50.864;12.766;2022-09-21T02:36:18;7.13;;;5.33;;
14241;SDS011;7205;50.864;12.766;2022-09-21T02:38:55;9.07;;;5.50;;
14241;SDS011;7205;50.864;12.766;2022-09-21T02:41:33;8.47;;;5.60;;
14241;SDS011;7205;50.864;12.766;2022-09-21T02:44:05;7.17;;;5.37;;
14241;SDS011;7205;50.864;12.766;2022-09-21T02:46:39;6.53;;;5.50;;
14241;SDS011;7205;50.864;12.766;2022-09-21T02:49:12;8.23;;;5.87;;
14241;SDS011;7205;50.864;12.766;2022-09-21T02:51:44;8.57;;;6.70;;
14241;SDS011;7205;50.864;12.766;2022-09-21T02:54:15;8.17;;;5.40;;
14241;SDS011;7205;50.864;12.766;2022-09-21T02:56:45;8.23;;;5.33;;
14241;SDS011;7205;50.864;12.766;2022-09-21T02:59:13;7.83;;;6.03;;
14241;SDS011;7205;50.864;12.766;2022-09-21T03:01:43;11.57;;;6.73;;
14241;SDS011;7205;50.864;12.766;2022-09-21T03:04:10;6.23;;;5.63;;
14241;SDS011;7205;50.864;12.766;2022-09-21T03:06:36;7.87;;;5.93;;
14241;SDS011;7205;50.864;12.766;2022-09-21T03:09:03;6.90;;;5.80;;
14241;SDS011;7205;50.864;12.766;2022-09-21T03:11:30;6.30;;;5.70;;
14241;SDS011;7205;50.864;12.766;2022-09-21T03:14:07;9.90;;;7.13;;
14241;SDS011;7205;50.864;12.766;2022-09-21T03:16:37;7.80;;;6.27;;
14241;SDS011;7205;50.864;12.766;2022-09-21T03:19:05;10.23;;;8.60;;
14241;SDS011;7205;50.864;12.766;2022-09-21T03:21:33;13.93;;;11.30;;
14241;SDS011;7205;50.864;12.766;2022-09-21T03:24:00;9.37;;;8.33;;
14241;SDS011;7205;50.864;12.766;2022-09-21T03:26:27;9.23;;;7.90;;
14241;SDS011;7205;50.864;12.766;2022-09-21T03:28:54;10.50;;;6.93;;
14241;SDS011;7205;50.864;12.766;2022-09-21T03:31:21;10.23;;;7.40;;
14241;SDS011;7205;50.864;12.766;2022-09-21T03:33:47;9.87;;;7.00;;
14241;SDS011;7205;50.864;12.766;2022-09-21T03:36:16;8.63;;;6.30;;
14241;SDS011;7205;50.864;12.766;2022-09-21T03:38:43;10.80;;;6.87;;
14241;SDS011;7205;50.864;12.766;2022-09-21T03:41:10;11.17;;;9.97;;
14241;SDS011;7205;50.864;12.766;2022-09-21T03:43:39;11.77;;;8.33;;
14241;SDS011;7205;50.864;12.766;2022-09-21T03:46:06;13.20;;;10.43;;
14241;SDS011;7205;50.864;12.766;2022-09-21T03:48:33;14.37;;;9.73;;
14241;SDS011;7205;50.864;12.766;2022-09-21T03:50:59;16.33;;;9.67;;
14241;SDS011;7205;50.864;12.766;2022-09-21T03:53:28;13.93;;;10.17;;
14241;SDS011;7205;50.864;12.766;2022-09-21T03:55:56;20.57;;;14.70;;
14241;SDS011;7205;50.864;12.766;2022-09-21T03:58:23;12.67;;;10.13;;
14241;SDS011;7205;50.864;12.766;2022-09-21T04:00:50;13.70;;;9.20;;
14241;SDS011;7205;50.864;12.766;2022-09-21T04:03:17;10.47;;;8.20;;
14241;SDS011;7205;50.864;12.766;2022-09-21T04:05:43;10.27;;;6.43;;
14241;SDS011;7205;50.864;12.766;2022-09-21T04:08:10;10.23;;;7.13;;
14241;SDS011;7205;50.864;12.766;2022-09-21T04:10:39;17.03;;;8.40;;
14241;SDS011;7205;50.864;12.766;2022-09-21T04:13:07;11.10;;;7.13;;
14241;SDS011;7205;50.864;12.766;2022-09-21T04:15:34;11.30;;;8.40;;
14241;SDS011;7205;50.864;12.766;2022-09-21T04:18:01;7.97;;;6.80;;
14241;SDS011;7205;50.864;12.766;2022-09-21T04:20:28;10.10;;;7.83;;
14241;SDS011;7205;50.864;12.766;2022-09-21T04:22:54;9.73;;;6.57;;
14241;SDS011;7205;50.864;12.766;2022-09-21T04:25:22;7.80;;;6.60;;
14241;SDS011;7205;50.864;12.766;2022-09-21T04:27:50;9.67;;;6.50;;
14241;SDS011;7205;50.864;12.766;2022-09-21T04:30:17;8.57;;;6.80;;
14241;SDS011;7205;50.864;12.766;2022-09-21T04:32:44;7.47;;;6.13;;
14241;SDS011;7205;50.864;12.766;2022-09-21T04:35:11;11.10;;;6.70;;
14241;SDS011;7205;50.864;12.766;2022-09-21T04:37:38;9.60;;;6.47;;
14241;SDS011;7205;50.864;12.766;2022-09-21T04:40:06;10.73;;;7.57;;
14241;SDS011;7205;50.864;12.766;2022-09-21T04:42:33;10.20;;;8.63;;
14241;SDS011;7205;50.864;12.766;2022-09-21T04:45:03;10.77;;;7.60;;
14241;SDS011;7205;50.864;12.766;2022-09-21T04:47:31;10.20;;;7.50;;
14241;SDS011;7205;50.864;12.766;2022-09-21T04:49:57;9.93;;;7.10;;
14241;SDS011;7205;50.864;12.766;2022-09-21T04:52:24;15.50;;;10.13;;
14241;SDS011;7205;50.864;12.766;2022-09-21T04:54:51;10.47;;;8.30;;
14241;SDS011;7205;50.864;12.766;2022-09-21T04:57:18;17.47;;;12.10;;
14241;SDS011;7205;50.864;12.766;2022-09-21T04:59:45;12.67;;;9.97;;
14241;SDS011;7205;50.864;12.766;2022-09-21T05:02:13;14.03;;;7.93;;
14241;SDS011;7205;50.864;12.766;2022-09-21T05:04:40;12.93;;;8.20;;
14241;SDS011;7205;50.864;12.766;2022-09-21T05:07:08;12.00;;;7.77;;
14241;SDS011;7205;50.864;12.766;2022-09-21T05:09:35;12.00;;;7.27;;
14241;SDS011;7205;50.864;12.766;2022-09-21T05:12:19;9.70;;;6.60;;
14241;SDS011;7205;50.864;12.766;2022-09-21T05:14:46;8.37;;;7.33;;
14241;SDS011;7205;50.864;12.766;2022-09-21T05:17:14;6.97;;;5.93;;
14241;SDS011;7205;50.864;12.766;2022-09-21T05:19:41;7.33;;;6.07;;
14241;SDS011;7205;50.864;12.766;2022-09-21T05:22:08;10.73;;;7.27;;
14241;SDS011;7205;50.864;12.766;2022-09-21T05:24:35;10.77;;;7.37;;
14241;SDS011;7205;50.864;12.766;2022-09-21T05:27:02;11.47;;;7.23;;
14241;SDS011;7205;50.864;12.766;2022-09-21T05:29:29;7.30;;;6.60;;
14241;SDS011;7205;50.864;12.766;2022-09-21T05:31:59;10.47;;;7.90;;
14241;SDS011;7205;50.864;12.766;2022-09-21T05:34:37;9.00;;;7.10;;
14241;SDS011;7205;50.864;12.766;2022-09-21T05:39:59;9.10;;;6.73;;
14241;SDS011;7205;50.864;12.766;2022-09-21T05:42:29;32.97;;;23.57;;
14241;SDS011;7205;50.864;12.766;2022-09-21T05:44:59;9.67;;;7.13;;
14241;SDS011;7205;50.864;12.766;2022-09-21T05:47:34;11.07;;;6.40;;
14241;SDS011;7205;50.864;12.766;2022-09-21T05:50:14;11.33;;;7.67;;
14241;SDS011;7205;50.864;12.766;2022-09-21T05:52:52;9.90;;;7.40;;
14241;SDS011;7205;50.864;12.766;2022-09-21T05:55:30;9.80;;;6.73;;
14241;SDS011;7205;50.864;12.766;2022-09-21T05:58:09;10.90;;;7.40;;
14241;SDS011;7205;50.864;12.766;2022-09-21T06:00:49;9.00;;;6.90;;
14241;SDS011;7205;50.864;12.766;2022-09-21T06:03:35;9.03;;;7.27;;
14241;SDS011;7205;50.864;12.766;2022-09-21T06:06:07;7.30;;;6.47;;
14241;SDS011;7205;50.864;12.766;2022-09-21T06:08:38;10.53;;;7.10;;
14241;SDS011;7205;50.864;12.766;2022-09-21T06:11:05;7.37;;;6.37;;
14241;SDS011;7205;50.864;12.766;2022-09-21T06:13:32;10.70;;;6.50;;
14241;SDS011;7205;50.864;12.766;2022-09-21T06:16:00;9.17;;;7.57;;
14241;SDS011;7205;50.864;12.766;2022-09-21T06:18:27;6.63;;;5.77;;
14241;SDS011;7205;50.864;12.766;2022-09-21T06:20:55;8.27;;;6.33;;
14241;SDS011;7205;50.864;12.766;2022-09-21T06:23:23;10.53;;;6.57;;
14241;SDS011;7205;50.864;12.766;2022-09-21T06:29:23;10.77;;;8.57;;
14241;SDS011;7205;50.864;12.766;2022-09-21T06:32:02;11.87;;;9.73;;
14241;SDS011;7205;50.864;12.766;2022-09-21T06:34:29;9.53;;;6.80;;
14241;SDS011;7205;50.864;12.766;2022-09-21T06:36:56;7.77;;;5.47;;
14241;SDS011;7205;50.864;12.766;2022-09-21T06:39:24;8.03;;;6.20;;
14241;SDS011;7205;50.864;12.766;2022-09-21T06:41:51;21.90;;;16.80;;
14241;SDS011;7205;50.864;12.766;2022-09-21T06:44:20;8.87;;;5.60;;
14241;SDS011;7205;50.864;12.766;2022-09-21T06:46:47;11.03;;;8.93;;
14241;SDS011;7205;50.864;12.766;2022-09-21T06:49:14;6.77;;;5.93;;
14241;SDS011;7205;50.864;12.766;2022-09-21T06:51:42;5.50;;;4.87;;
14241;SDS011;7205;50.864;12.766;2022-09-21T06:54:09;8.17;;;5.90;;
14241;SDS011;7205;50.864;12.766;2022-09-21T06:56:39;6.60;;;4.67;;
14241;SDS011;7205;50.864;12.766;2022-09-21T06:59:07;6.50;;;4.77;;
14241;SDS011;7205;50.864;12.766;2022-09-21T07:01:34;5.40;;;4.90;;
14241;SDS011;7205;50.864;12.766;2022-09-21T07:04:01;5.20;;;4.10;;
14241;SDS011;7205;50.864;12.766;2022-09-21T07:06:28;4.77;;;4.33;;
14241;SDS011;7205;50.864;12.766;2022-09-21T07:08:55;10.00;;;6.20;;
14241;SDS011;7205;50.864;12.766;2022-09-21T07:11:22;6.87;;;4.87;;
14241;SDS011;7205;50.864;12.766;2022-09-21T07:13:53;6.10;;;4.80;;
14241;SDS011;7205;50.864;12.766;2022-09-21T07:16:20;5.70;;;5.10;;
14241;SDS011;7205;50.864;12.766;2022-09-21T07:18:48;5.30;;;4.70;;
14241;SDS011;7205;50.864;12.766;2022-09-21T07:21:15;6.50;;;4.17;;
14241;SDS011;7205;50.864;12.766;2022-09-21T07:23:42;5.20;;;4.63;;
14241;SDS011;7205;50.864;12.766;2022-09-21T07:26:29;4.70;;;4.30;;
14241;SDS011;7205;50.864;12.766;2022-09-21T07:33:48;6.53;;;5.80;;
14241;SDS011;7205;50.864;12.766;2022-09-21T07:36:15;5.87;;;5.10;;
14241;SDS011;7205;50.864;12.766;2022-09-21T07:38:42;6.73;;;4.93;;
14241;SDS011;7205;50.864;12.766;2022-09-21T07:41:10;6.50;;;4.30;;
14241;SDS011;7205;50.864;12.766;2022-09-21T07:43:38;7.30;;;6.60;;
14241;SDS011;7205;50.864;12.766;2022-09-21T07:46:06;9.13;;;5.00;;
14241;SDS011;7205;50.864;12.766;2022-09-21T07:48:35;5.80;;;5.20;;
14241;SDS011;7205;50.864;12.766;2022-09-21T07:51:02;8.53;;;5.93;;
14241;SDS011;7205;50.864;12.766;2022-09-21T07:53:30;6.70;;;4.43;;
14241;SDS011;7205;50.864;12.766;2022-09-21T07:56:01;6.93;;;5.20;;
14241;SDS011;7205;50.864;12.766;2022-09-21T07:58:29;6.23;;;5.73;;
14241;SDS011;7205;50.864;12.766;2022-09-21T08:01:12;10.40;;;5.60;;
14241;SDS011;7205;50.864;12.766;2022-09-21T08:03:41;7.07;;;6.33;;
14241;SDS011;7205;50.864;12.766;2022-09-21T08:06:08;6.77;;;6.13;;
14241;SDS011;7205;50.864;12.766;2022-09-21T08:08:35;10.23;;;6.73;;
14241;SDS011;7205;50.864;12.766;2022-09-21T08:11:02;7.63;;;6.20;;
14241;SDS011;7205;50.864;12.766;2022-09-21T08:13:29;9.07;;;5.63;;
14241;SDS011;7205;50.864;12.766;2022-09-21T08:15:57;6.30;;;5.17;;
14241;SDS011;7205;50.864;12.766;2022-09-21T08:18:27;7.60;;;5.30;;
14241;SDS011;7205;50.864;12.766;2022-09-21T08:20:56;5.33;;;4.83;;
14241;SDS011;7205;50.864;12.766;2022-09-21T08:23:24;5.70;;;4.63;;
14241;SDS011;7205;50.864;12.766;2022-09-21T08:25:56;5.33;;;4.83;;
14241;SDS011;7205;50.864;12.766;2022-09-21T08:28:25;5.83;;;4.53;;
14241;SDS011;7205;50.864;12.766;2022-09-21T08:30:57;5.57;;;4.83;;
14241;SDS011;7205;50.864;12.766;2022-09-21T08:33:25;4.53;;;4.13;;
14241;SDS011;7205;50.864;12.766;2022-09-21T08:35:58;4.83;;;4.37;;
14241;SDS011;7205;50.864;12.766;2022-09-21T08:38:26;4.83;;;3.90;;
14241;SDS011;7205;50.864;12.766;2022-09-21T08:41:01;5.50;;;4.70;;
14241;SDS011;7205;50.864;12.766;2022-09-21T08:43:37;4.30;;;3.43;;
14241;SDS011;7205;50.864;12.766;2022-09-21T08:46:08;5.30;;;3.67;;
14241;SDS011;7205;50.864;12.766;2022-09-21T08:48:38;7.03;;;3.77;;
14241;SDS011;7205;50.864;12.766;2022-09-21T08:51:13;3.70;;;3.40;;
14241;SDS011;7205;50.864;12.766;2022-09-21T10:50:05;1.43;;;1.33;;
14241;SDS011;7205;50.864;12.766;2022-09-21T10:53:11;1.20;;;1.10;;
14241;SDS011;7205;50.864;12.766;2022-09-21T11:15:07;2.03;;;1.00;;
14241;SDS011;7205;50.864;12.766;2022-09-21T11:18:12;1.20;;;0.90;;
14241;SDS011;7205;50.864;12.766;2022-09-21T11:40:08;1.17;;;0.63;;
14241;SDS011;7205;50.864;12.766;2022-09-21T11:42:52;1.30;;;0.80;;
14241;SDS011;7205;50.864;12.766;2022-09-21T11:45:44;1.80;;;0.73;;
14241;SDS011;7205;50.864;12.766;2022-09-21T11:48:21;1.23;;;0.80;;
14241;SDS011;7205;50.864;12.766;2022-09-21T11:50:58;1.77;;;1.10;;
14241;SDS011;7205;50.864;12.766;2022-09-21T11:53:39;1.27;;;0.57;;
14241;SDS011;7205;50.864;12.766;2022-09-21T11:56:24;1.37;;;0.70;;
14241;SDS011;7205;50.864;12.766;2022-09-21T11:59:02;1.07;;;0.57;;
14241;SDS011;7205;50.864;12.766;2022-09-21T12:01:47;0.77;;;0.77;;
14241;SDS011;7205;50.864;12.766;2022-09-21T12:04:37;1.40;;;0.60;;
14241;SDS011;7205;50.864;12.766;2022-09-21T12:07:14;1.33;;;0.70;;
14241;SDS011;7205;50.864;12.766;2022-09-21T12:09:58;1.17;;;0.73;;
14241;SDS011;7205;50.864;12.766;2022-09-21T12:12:42;1.63;;;0.60;;
14241;SDS011;7205;50.864;12.766;2022-09-21T12:15:16;0.90;;;0.67;;
14241;SDS011;7205;50.864;12.766;2022-09-21T12:17:49;1.47;;;0.70;;
14241;SDS011;7205;50.864;12.766;2022-09-21T12:20:25;1.27;;;0.73;;
14241;SDS011;7205;50.864;12.766;2022-09-21T12:23:03;0.93;;;0.83;;
14241;SDS011;7205;50.864;12.766;2022-09-21T12:25:37;1.07;;;0.60;;
14241;SDS011;7205;50.864;12.766;2022-09-21T12:28:11;1.33;;;0.60;;
14241;SDS011;7205;50.864;12.766;2022-09-21T12:30:43;0.37;;;0.37;;
14241;SDS011;7205;50.864;12.766;2022-09-21T12:33:14;0.40;;;0.30;;
14241;SDS011;7205;50.864;12.766;2022-09-21T12:35:46;0.80;;;0.40;;
14241;SDS011;7205;50.864;12.766;2022-09-21T12:38:16;0.93;;;0.57;;
14241;SDS011;7205;50.864;12.766;2022-09-21T12:40:49;1.17;;;0.60;;
14241;SDS011;7205;50.864;12.766;2022-09-21T12:43:25;2.43;;;0.43;;
14241;SDS011;7205;50.864;12.766;2022-09-21T12:46:00;2.67;;;0.60;;
14241;SDS011;7205;50.864;12.766;2022-09-21T12:48:31;1.20;;;0.50;;
14241;SDS011;7205;50.864;12.766;2022-09-21T12:51:01;0.67;;;0.50;;
14241;SDS011;7205;50.864;12.766;2022-09-21T12:53:35;1.37;;;0.50;;
14241;SDS011;7205;50.864;12.766;2022-09-21T12:56:08;2.00;;;0.77;;
14241;SDS011;7205;50.864;12.766;2022-09-21T12:58:49;1.70;;;0.60;;
14241;SDS011;7205;50.864;12.766;2022-09-21T13:01:29;0.83;;;0.50;;
14241;SDS011;7205;50.864;12.766;2022-09-21T13:04:08;0.63;;;0.40;;
14241;SDS011;7205;50.864;12.766;2022-09-21T13:06:47;0.97;;;0.60;;
14241;SDS011;7205;50.864;12.766;2022-09-21T13:09:38;0.40;;;0.30;;
14241;SDS011;7205;50.864;12.766;2022-09-21T13:12:13;1.43;;;0.80;;
14241;SDS011;7205;50.864;12.766;2022-09-21T13:14:47;2.83;;;0.70;;
14241;SDS011;7205;50.864;12.766;2022-09-21T13:17:19;1.70;;;1.00;;
14241;SDS011;7205;50.864;12.766;2022-09-21T13:19:55;2.60;;;1.40;;
14241;SDS011;7205;50.864;12.766;2022-09-21T13:22:26;1.37;;;0.60;;
14241;SDS011;7205;50.864;12.766;2022-09-21T13:25:00;1.67;;;0.70;;
14241;SDS011;7205;50.864;12.766;2022-09-21T13:30:31;2.10;;;0.70;;
14241;SDS011;7205;50.864;12.766;2022-09-21T13:33:04;0.70;;;0.70;;
14241;SDS011;7205;50.864;12.766;2022-09-21T13:36:35;1.40;;;1.07;;
14241;SDS011;7205;50.864;12.766;2022-09-21T13:39:13;2.10;;;1.10;;
14241;SDS011;7205;50.864;12.766;2022-09-21T13:41:50;0.90;;;0.63;;
14241;SDS011;7205;50.864;12.766;2022-09-21T13:47:12;1.40;;;0.70;;
14241;SDS011;7205;50.864;12.766;2022-09-21T13:49:49;0.90;;;0.60;;
14241;SDS011;7205;50.864;12.766;2022-09-21T13:52:26;1.63;;;1.10;;
14241;SDS011;7205;50.864;12.766;2022-09-21T13:55:21;1.50;;;1.07;;
14241;SDS011;7205;50.864;12.766;2022-09-21T13:57:59;1.30;;;0.87;;
14241;SDS011;7205;50.864;12.766;2022-09-21T14:00:35;1.27;;;0.80;;
14241;SDS011;7205;50.864;12.766;2022-09-21T14:03:17;2.00;;;1.07;;
14241;SDS011;7205;50.864;12.766;2022-09-21T14:05:50;0.97;;;0.50;;
14241;SDS011;7205;50.864;12.766;2022-09-21T14:08:25;1.40;;;0.60;;
14241;SDS011;7205;50.864;12.766;2022-09-21T14:11:00;1.57;;;0.60;;
14241;SDS011;7205;50.864;12.766;2022-09-21T14:13:31;1.07;;;0.77;;
14241;SDS011;7205;50.864;12.766;2022-09-21T14:18:55;0.90;;;0.83;;
14241;SDS011;7205;50.864;12.766;2022-09-21T14:21:22;0.93;;;0.80;;
14241;SDS011;7205;50.864;12.766;2022-09-21T14:27:00;2.70;;;2.10;;
14241;SDS011;7205;50.864;12.766;2022-09-21T14:29:37;1.50;;;1.40;;
14241;SDS011;7205;50.864;12.766;2022-09-21T14:32:14;1.93;;;1.20;;
14241;SDS011;7205;50.864;12.766;2022-09-21T14:34:48;2.47;;;1.87;;
14241;SDS011;7205;50.864;12.766;2022-09-21T14:37:29;1.27;;;0.83;;
14241;SDS011;7205;50.864;12.766;2022-09-21T14:40:03;1.00;;;0.70;;
14241;SDS011;7205;50.864;12.766;2022-09-21T14:42:41;1.07;;;0.60;;
14241;SDS011;7205;50.864;12.766;2022-09-21T14:45:13;1.33;;;0.80;;
14241;SDS011;7205;50.864;12.766;2022-09-21T14:47:53;5.33;;;0.93;;
14241;SDS011;7205;50.864;12.766;2022-09-21T14:50:33;1.20;;;1.10;;
14241;SDS011;7205;50.864;12.766;2022-09-21T14:56:22;0.70;;;0.60;;
14241;SDS011;7205;50.864;12.766;2022-09-21T14:59:09;0.67;;;0.50;;
14241;SDS011;7205;50.864;12.766;2022-09-21T15:01:54;1.10;;;0.50;;
14241;SDS011;7205;50.864;12.766;2022-09-21T15:04:46;0.30;;;0.30;;
14241;SDS011;7205;50.864;12.766;2022-09-21T15:10:44;0.53;;;0.50;;
14241;SDS011;7205;50.864;12.766;2022-09-21T15:16:42;0.50;;;0.30;;
14241;SDS011;7205;50.864;12.766;2022-09-21T15:19:22;0.60;;;0.60;;
14241;SDS011;7205;50.864;12.766;2022-09-21T15:21:54;0.80;;;0.50;;
14241;SDS011;7205;50.864;12.766;2022-09-21T15:24:26;1.93;;;0.50;;
14241;SDS011;7205;50.864;12.766;2022-09-21T15:27:06;0.70;;;0.60;;
14241;SDS011;7205;50.864;12.766;2022-09-21T15:29:43;0.80;;;0.63;;
14241;SDS011;7205;50.864;12.766;2022-09-21T15:32:20;0.83;;;0.43;;
14241;SDS011;7205;50.864;12.766;2022-09-21T15:35:16;0.50;;;0.50;;
14241;SDS011;7205;50.864;12.766;2022-09-21T15:37:47;1.70;;;0.60;;
14241;SDS011;7205;50.864;12.766;2022-09-21T15:40:20;1.43;;;0.60;;
14241;SDS011;7205;50.864;12.766;2022-09-21T15:42:59;2.30;;;0.60;;
14241;SDS011;7205;50.864;12.766;2022-09-21T15:45:48;2.13;;;0.53;;
14241;SDS011;7205;50.864;12.766;2022-09-21T15:48:18;3.37;;;0.63;;
14241;SDS011;7205;50.864;12.766;2022-09-21T15:50:52;2.83;;;0.70;;
14241;SDS011;7205;50.864;12.766;2022-09-21T15:53:27;1.60;;;0.63;;
14241;SDS011;7205;50.864;12.766;2022-09-21T15:56:00;0.60;;;0.50;;
14241;SDS011;7205;50.864;12.766;2022-09-21T15:58:36;1.43;;;0.60;;
14241;SDS011;7205;50.864;12.766;2022-09-21T16:01:13;0.80;;;0.63;;
14241;SDS011;7205;50.864;12.766;2022-09-21T16:03:41;0.53;;;0.53;;
14241;SDS011;7205;50.864;12.766;2022-09-21T16:09:27;0.50;;;0.50;;
14241;SDS011;7205;50.864;12.766;2022-09-21T16:15:06;3.23;;;0.70;;
14241;SDS011;7205;50.864;12.766;2022-09-21T16:17:53;2.87;;;0.70;;
14241;SDS011;7205;50.864;12.766;2022-09-21T16:20:22;2.23;;;1.03;;
14241;SDS011;7205;50.864;12.766;2022-09-21T16:22:51;2.87;;;0.93;;
14241;SDS011;7205;50.864;12.766;2022-09-21T16:25:29;4.03;;;1.00;;
14241;SDS011;7205;50.864;12.766;2022-09-21T16:28:02;1.65;;;1.00;;
14241;SDS011;7205;50.864;12.766;2022-09-21T16:30:41;2.25;;;1.00;;
14241;SDS011;7205;50.864;12.766;2022-09-21T16:33:38;3.30;;;0.80;;
14241;SDS011;7205;50.864;12.766;2022-09-21T16:39:10;1.23;;;0.87;;
14241;SDS011;7205;50.864;12.766;2022-09-21T16:41:39;1.63;;;1.10;;
14241;SDS011;7205;50.864;12.766;2022-09-21T16:44:09;3.13;;;0.80;;
14241;SDS011;7205;50.864;12.766;2022-09-21T16:46:50;1.10;;;1.00;;
14241;SDS011;7205;50.864;12.766;2022-09-21T16:49:20;1.00;;;0.90;;
14241;SDS011;7205;50.864;12.766;2022-09-21T16:51:50;2.20;;;1.30;;
14241;SDS011;7205;50.864;12.766;2022-09-21T16:54:19;1.93;;;1.33;;
14241;SDS011;7205;50.864;12.766;2022-09-21T16:56:53;3.53;;;1.50;;
14241;SDS011;7205;50.864;12.766;2022-09-21T16:59:24;2.87;;;1.50;;
14241;SDS011;7205;50.864;12.766;2022-09-21T17:01:51;3.23;;;1.00;;
14241;SDS011;7205;50.864;12.766;2022-09-21T17:04:22;1.67;;;1.40;;
14241;SDS011;7205;50.864;12.766;2022-09-21T17:06:50;2.53;;;1.30;;
14241;SDS011;7205;50.864;12.766;2022-09-21T17:09:19;2.93;;;1.30;;
14241;SDS011;7205;50.864;12.766;2022-09-21T17:11:48;2.13;;;1.50;;
14241;SDS011;7205;50.864;12.766;2022-09-21T17:14:16;3.73;;;1.90;;
14241;SDS011;7205;50.864;12.766;2022-09-21T17:16:45;3.47;;;3.00;;
14241;SDS011;7205;50.864;12.766;2022-09-21T17:19:14;4.87;;;2.80;;
14241;SDS011;7205;50.864;12.766;2022-09-21T17:21:43;5.40;;;3.03;;
14241;SDS011;7205;50.864;12.766;2022-09-21T17:24:11;7.87;;;3.13;;
14241;SDS011;7205;50.864;12.766;2022-09-21T17:26:39;29.07;;;20.67;;
14241;SDS011;7205;50.864;12.766;2022-09-21T17:31:55;2.27;;;2.17;;
14241;SDS011;7205;50.864;12.766;2022-09-21T17:34:24;6.60;;;4.73;;
14241;SDS011;7205;50.864;12.766;2022-09-21T17:36:53;3.87;;;3.37;;
14241;SDS011;7205;50.864;12.766;2022-09-21T17:39:21;5.43;;;3.10;;
14241;SDS011;7205;50.864;12.766;2022-09-21T17:41:49;5.23;;;3.43;;
14241;SDS011;7205;50.864;12.766;2022-09-21T17:44:24;6.43;;;3.60;;
14241;SDS011;7205;50.864;12.766;2022-09-21T17:47:16;2.20;;;2.10;;
14241;SDS011;7205;50.864;12.766;2022-09-21T17:49:46;6.37;;;3.17;;
14241;SDS011;7205;50.864;12.766;2022-09-21T17:52:16;4.17;;;2.50;;
14241;SDS011;7205;50.864;12.766;2022-09-21T17:55:02;6.20;;;3.13;;
14241;SDS011;7205;50.864;12.766;2022-09-21T17:57:50;5.93;;;3.20;;
14241;SDS011;7205;50.864;12.766;2022-09-21T18:00:24;6.43;;;3.47;;
14241;SDS011;7205;50.864;12.766;2022-09-21T18:02:58;6.80;;;2.97;;
14241;SDS011;7205;50.864;12.766;2022-09-21T18:05:25;3.90;;;2.50;;
14241;SDS011;7205;50.864;12.766;2022-09-21T18:07:56;5.00;;;2.67;;
14241;SDS011;7205;50.864;12.766;2022-09-21T18:10:23;4.67;;;2.97;;
14241;SDS011;7205;50.864;12.766;2022-09-21T18:15:52;3.53;;;3.23;;
14241;SDS011;7205;50.864;12.766;2022-09-21T18:18:32;5.87;;;3.90;;
14241;SDS011;7205;50.864;12.766;2022-09-21T18:21:08;5.23;;;4.57;;
14241;SDS011;7205;50.864;12.766;2022-09-21T18:23:43;4.40;;;3.50;;
14241;SDS011;7205;50.864;12.766;2022-09-21T18:26:18;3.57;;;3.27;;
14241;SDS011;7205;50.864;12.766;2022-09-21T18:28:46;4.67;;;3.93;;
14241;SDS011;7205;50.864;12.766;2022-09-21T18:31:31;4.27;;;3.73;;
14241;SDS011;7205;50.864;12.766;2022-09-21T18:34:14;5.90;;;4.57;;
14241;SDS011;7205;50.864;12.766;2022-09-21T18:36:54;7.77;;;5.50;;
14241;SDS011;7205;50.864;12.766;2022-09-21T18:39:29;5.70;;;5.10;;
14241;SDS011;7205;50.864;12.766;2022-09-21T18:42:04;9.33;;;6.83;;
14241;SDS011;7205;50.864;12.766;2022-09-21T18:44:44;9.43;;;4.63;;
14241;SDS011;7205;50.864;12.766;2022-09-21T18:47:17;6.33;;;5.03;;
14241;SDS011;7205;50.864;12.766;2022-09-21T18:49:50;7.93;;;4.67;;
14241;SDS011;7205;50.864;12.766;2022-09-21T18:52:27;6.60;;;6.00;;
14241;SDS011;7205;50.864;12.766;2022-09-21T18:55:04;6.17;;;5.60;;
14241;SDS011;7205;50.864;12.766;2022-09-21T18:57:40;6.67;;;6.00;;
14241;SDS011;7205;50.864;12.766;2022-09-21T19:00:10;5.77;;;5.10;;